createdAt,value
2018-04-07T00:00:03.448Z,87.79
2018-04-07T00:02:31.034Z,87.40
2018-04-07T00:04:58.674Z,87.19
2018-04-07T00:07:26.308Z,87.23
2018-04-07T00:09:53.870Z,87.11
2018-04-07T00:12:21.463Z,86.80
2018-04-07T00:14:49.035Z,86.50
2018-04-07T00:17:16.670Z,86.28
2018-04-07T00:19:44.289Z,86.21
2018-04-07T00:22:11.850Z,86.10
2018-04-07T00:24:39.417Z,86.00
2018-04-07T00:27:07.070Z,86.15
2018-04-07T00:29:34.673Z,85.81
2018-04-07T00:32:02.312Z,86.29
2018-04-07T00:34:29.954Z,86.10
2018-04-07T00:36:57.518Z,86.21
2018-04-07T00:39:25.091Z,86.15
2018-04-07T00:41:52.682Z,86.03
2018-04-07T00:44:20.358Z,86.04
2018-04-07T00:46:47.945Z,86.03
2018-04-07T00:49:15.528Z,85.75
2018-04-07T00:51:43.101Z,85.44
2018-04-07T00:54:10.662Z,85.24
2018-04-07T00:56:38.402Z,85.42
2018-04-07T00:59:06.018Z,85.64
2018-04-07T01:01:33.599Z,85.73
2018-04-07T01:04:01.154Z,85.65
2018-04-07T01:06:28.713Z,86.15
2018-04-07T01:08:56.394Z,86.28
2018-04-07T01:11:23.957Z,86.62
2018-04-07T01:13:51.532Z,87.16
2018-04-07T01:16:19.106Z,87.72
2018-04-07T01:18:46.670Z,88.21
2018-04-07T01:21:14.320Z,88.80
2018-04-07T01:23:41.943Z,89.08
2018-04-07T01:26:09.510Z,89.32
2018-04-07T01:28:37.086Z,89.40
2018-04-07T01:31:04.668Z,89.35
2018-04-07T01:33:32.310Z,89.02
2018-04-07T01:35:59.871Z,89.41
2018-04-07T01:38:27.445Z,89.36
2018-04-07T01:40:55.078Z,89.49
2018-04-07T01:43:22.658Z,89.26
2018-04-07T01:45:50.294Z,89.37
2018-04-07T01:48:17.865Z,89.50
2018-04-07T01:50:45.497Z,89.54
2018-04-07T01:53:13.078Z,89.39
2018-04-07T01:55:40.641Z,89.02
2018-04-07T01:58:08.360Z,88.82
2018-04-07T02:00:35.961Z,88.87
2018-04-07T02:03:03.537Z,88.53
2018-04-07T02:05:31.110Z,88.14
2018-04-07T02:07:58.691Z,88.06
2018-04-07T02:10:26.339Z,88.10
2018-04-07T02:12:53.895Z,87.95
2018-04-07T02:15:21.455Z,87.68
2018-04-07T02:17:49.037Z,87.56
2018-04-07T02:20:17.486Z,87.37
2018-04-07T02:22:45.132Z,87.30
2018-04-07T02:25:12.715Z,87.45
2018-04-07T02:27:40.344Z,87.82
2018-04-07T02:30:07.945Z,87.84
2018-04-07T02:32:35.532Z,87.89
2018-04-07T02:35:03.207Z,87.98
2018-04-07T02:37:30.873Z,87.69
2018-04-07T02:39:58.446Z,87.87
2018-04-07T02:42:26.103Z,87.79
2018-04-07T02:44:53.698Z,87.82
2018-04-07T02:47:21.350Z,88.07
2018-04-07T02:49:48.920Z,88.00
2018-04-07T02:52:16.533Z,88.06
2018-04-07T02:54:44.110Z,87.96
2018-04-07T02:57:11.733Z,87.86
2018-04-07T02:59:39.351Z,88.26
2018-04-07T03:02:06.998Z,88.69
2018-04-07T03:04:34.588Z,88.95
2018-04-07T03:07:02.236Z,89.29
2018-04-07T03:09:29.813Z,89.85
2018-04-07T03:11:57.437Z,90.02
2018-04-07T03:14:25.026Z,90.58
2018-04-07T03:16:52.685Z,90.55
2018-04-07T03:19:20.300Z,90.96
2018-04-07T03:21:48.214Z,90.83
2018-04-07T03:24:15.832Z,91.08
2018-04-07T03:26:43.426Z,91.42
2018-04-07T03:29:11.110Z,91.54
2018-04-07T03:31:38.752Z,91.82
2018-04-07T03:34:06.334Z,91.79
2018-04-07T03:36:33.982Z,92.14
2018-04-07T03:39:01.567Z,92.37
2018-04-07T03:41:29.138Z,91.97
2018-04-07T03:43:56.806Z,91.53
2018-04-07T03:46:24.463Z,91.32
2018-04-07T03:48:52.111Z,91.18
2018-04-07T03:51:19.721Z,90.94
2018-04-07T03:53:47.302Z,90.86
2018-04-07T03:56:14.958Z,90.72
2018-04-07T03:58:42.553Z,90.45
2018-04-07T04:01:10.255Z,90.27
2018-04-07T04:03:37.880Z,90.24
2018-04-07T04:06:05.510Z,90.52
2018-04-07T04:08:33.198Z,90.83
2018-04-07T04:11:00.785Z,91.27
2018-04-07T04:13:28.352Z,91.77
2018-04-07T04:15:55.933Z,91.81
2018-04-07T04:18:23.526Z,91.84
2018-04-07T04:20:51.173Z,91.48
2018-04-07T04:23:18.811Z,91.19
2018-04-07T04:25:46.464Z,90.76
2018-04-07T04:28:14.095Z,90.27
2018-04-07T04:30:41.702Z,90.25
2018-04-07T04:33:09.338Z,89.78
2018-04-07T04:35:36.911Z,89.63
2018-04-07T04:38:04.593Z,89.32
2018-04-07T04:40:32.230Z,88.84
2018-04-07T04:42:59.802Z,88.22
2018-04-07T04:45:27.430Z,87.72
2018-04-07T04:47:55.062Z,87.42
2018-04-07T04:50:22.731Z,87.58
2018-04-07T04:52:50.368Z,86.66
2018-04-07T04:55:17.993Z,85.76
2018-04-07T04:57:45.632Z,80.17
2018-04-07T05:00:13.238Z,77.72
2018-04-07T05:02:40.822Z,72.45
2018-04-07T05:05:08.386Z,69.15
2018-04-07T05:07:36.022Z,66.32
2018-04-07T05:10:03.647Z,66.12
2018-04-07T05:12:31.273Z,64.18
2018-04-07T05:14:58.866Z,61.64
2018-04-07T05:17:26.490Z,57.85
2018-04-07T05:19:54.155Z,53.34
2018-04-07T05:22:21.779Z,51.68
2018-04-07T05:24:49.354Z,50.34
2018-04-07T05:27:16.918Z,50.14
2018-04-07T05:29:44.526Z,49.55
2018-04-07T05:32:12.147Z,49.70
2018-04-07T05:34:39.706Z,50.37
2018-04-07T05:37:07.394Z,50.18
2018-04-07T05:39:35.009Z,50.97
2018-04-07T05:42:02.596Z,52.18
2018-04-07T05:44:30.177Z,52.99
2018-04-07T05:46:57.786Z,54.41
2018-04-07T05:49:25.377Z,55.57
2018-04-07T05:51:52.945Z,60.27
2018-04-07T05:54:20.580Z,61.70
2018-04-07T05:56:48.186Z,62.58
2018-04-07T05:59:15.761Z,64.44
2018-04-07T06:01:43.330Z,64.48
2018-04-07T06:04:10.978Z,64.76
2018-04-07T06:06:38.544Z,64.71
2018-04-07T06:09:06.867Z,64.48
2018-04-07T06:11:34.445Z,64.97
2018-04-07T06:14:02.010Z,63.15
2018-04-07T06:16:29.638Z,60.70
2018-04-07T06:18:57.238Z,60.38
2018-04-07T06:21:24.889Z,60.92
2018-04-07T06:23:52.514Z,61.75
2018-04-07T06:26:20.138Z,59.36
2018-04-07T06:28:47.760Z,56.72
2018-04-07T06:31:15.374Z,53.45
2018-04-07T06:33:42.958Z,52.40
2018-04-07T06:36:10.523Z,51.25
2018-04-07T06:38:38.220Z,50.77
2018-04-07T06:41:05.781Z,50.55
2018-04-07T06:43:33.342Z,50.01
2018-04-07T06:46:00.912Z,48.30
2018-04-07T06:48:28.534Z,47.96
2018-04-07T06:50:56.104Z,48.97
2018-04-07T06:53:23.671Z,50.23
2018-04-07T06:55:51.360Z,48.98
2018-04-07T06:58:18.933Z,48.39
2018-04-07T07:00:46.500Z,50.51
2018-04-07T07:03:14.082Z,50.94
2018-04-07T07:05:41.627Z,52.59
2018-04-07T07:08:09.198Z,54.33
2018-04-07T07:10:36.758Z,53.07
2018-04-07T07:13:04.424Z,51.72
2018-04-07T07:15:32.048Z,54.48
2018-04-07T07:17:59.658Z,55.33
2018-04-07T07:20:27.287Z,55.17
2018-04-07T07:22:54.858Z,54.71
2018-04-07T07:25:22.457Z,51.47
2018-04-07T07:27:50.083Z,51.40
2018-04-07T07:30:17.694Z,49.80
2018-04-07T07:32:45.254Z,49.80
2018-04-07T07:35:12.818Z,50.18
2018-04-07T07:37:40.387Z,53.22
2018-04-07T07:40:08.047Z,53.67
2018-04-07T07:42:35.618Z,51.07
2018-04-07T07:45:03.229Z,52.15
2018-04-07T07:47:30.845Z,52.84
2018-04-07T07:49:58.431Z,53.03
2018-04-07T07:52:26.050Z,52.18
2018-04-07T07:54:53.622Z,52.18
2018-04-07T07:57:21.191Z,52.96
2018-04-07T07:59:48.766Z,52.97
2018-04-07T08:02:16.329Z,52.54
2018-04-07T08:04:43.981Z,53.28
2018-04-07T08:07:11.562Z,54.99
2018-04-07T08:09:39.142Z,54.68
2018-04-07T08:12:06.713Z,55.37
2018-04-07T08:14:34.273Z,54.84
2018-04-07T08:17:01.908Z,55.46
2018-04-07T08:19:29.475Z,53.73
2018-04-07T08:21:57.155Z,54.48
2018-04-07T08:24:24.785Z,53.63
2018-04-07T08:26:52.412Z,54.13
2018-04-07T08:29:19.990Z,54.20
2018-04-07T08:31:47.943Z,54.04
2018-04-07T08:34:15.526Z,52.76
2018-04-07T08:36:43.154Z,52.73
2018-04-07T08:39:10.798Z,53.05
2018-04-07T08:41:38.362Z,52.61
2018-04-07T08:44:05.926Z,53.39
2018-04-07T08:46:33.562Z,53.92
2018-04-07T08:49:01.258Z,53.77
2018-04-07T08:51:28.840Z,51.63
2018-04-07T08:53:56.447Z,51.36
2018-04-07T08:56:24.070Z,50.11
2018-04-07T08:58:52.149Z,50.68
2018-04-07T09:01:19.792Z,49.58
2018-04-07T09:03:47.375Z,51.15
2018-04-07T09:06:14.950Z,50.78
2018-04-07T09:08:42.537Z,49.55
2018-04-07T09:11:10.112Z,49.34
2018-04-07T09:13:37.730Z,48.79
2018-04-07T09:16:05.384Z,47.93
2018-04-07T09:18:32.954Z,47.75
2018-04-07T09:21:00.530Z,48.60
2018-04-07T09:23:28.094Z,49.89
2018-04-07T09:25:55.718Z,48.91
2018-04-07T09:28:23.360Z,47.50
2018-04-07T09:30:50.999Z,47.85
2018-04-07T09:33:18.645Z,48.02
2018-04-07T09:35:46.228Z,47.44
2018-04-07T09:38:13.864Z,48.33
2018-04-07T09:40:41.451Z,46.57
2018-04-07T09:43:09.102Z,45.78
2018-04-07T09:45:36.679Z,45.95
2018-04-07T09:48:04.254Z,45.66
2018-04-07T09:50:31.877Z,45.29
2018-04-07T09:52:59.513Z,44.15
2018-04-07T09:55:27.085Z,44.36
2018-04-07T09:57:54.643Z,42.91
2018-04-07T10:00:22.248Z,41.97
2018-04-07T10:03:04.639Z,41.53
2018-04-07T10:05:32.200Z,42.10
2018-04-07T10:07:59.887Z,41.16
2018-04-07T10:10:27.450Z,41.59
2018-04-07T10:12:55.028Z,41.25
2018-04-07T10:15:22.603Z,42.09
2018-04-07T10:17:50.226Z,41.41
2018-04-07T10:20:17.829Z,41.54
2018-04-07T10:22:45.402Z,40.09
2018-04-07T10:25:12.993Z,39.85
2018-04-07T10:27:40.570Z,40.27
2018-04-07T10:30:08.134Z,40.84
2018-04-07T10:32:35.806Z,39.66
2018-04-07T10:35:03.371Z,39.91
2018-04-07T10:37:30.938Z,40.73
2018-04-07T10:39:58.567Z,41.55
2018-04-07T10:42:26.126Z,41.55
2018-04-07T10:44:53.743Z,42.01
2018-04-07T10:47:21.313Z,41.94
2018-04-07T10:49:48.947Z,41.43
2018-04-07T10:52:16.598Z,41.88
2018-04-07T10:54:44.231Z,41.27
2018-04-07T10:57:11.848Z,41.10
2018-04-07T10:59:39.446Z,40.67
2018-04-07T11:02:07.026Z,40.56
2018-04-07T11:04:34.607Z,41.06
2018-04-07T11:07:02.176Z,42.17
2018-04-07T11:09:29.802Z,42.96
2018-04-07T11:11:57.380Z,43.37
2018-04-07T11:14:24.988Z,44.14
2018-04-07T11:16:52.578Z,44.31
2018-04-07T11:19:20.145Z,42.91
2018-04-07T11:21:48.029Z,42.44
2018-04-07T11:24:15.592Z,42.32
2018-04-07T11:26:43.155Z,42.74
2018-04-07T11:29:10.823Z,41.66
2018-04-07T11:31:38.401Z,41.01
2018-04-07T11:34:06.028Z,41.87
2018-04-07T11:36:33.600Z,43.35
2018-04-07T11:39:01.159Z,44.05
2018-04-07T11:41:30.961Z,43.83
2018-04-07T11:43:58.527Z,43.66
2018-04-07T11:46:26.224Z,44.72
2018-04-07T11:48:53.794Z,45.45
2018-04-07T11:51:21.363Z,44.09
2018-04-07T11:53:48.939Z,43.55
2018-04-07T11:56:16.575Z,42.02
2018-04-07T11:58:44.258Z,42.34
2018-04-07T12:01:11.890Z,43.83
2018-04-07T12:03:39.526Z,44.43
2018-04-07T12:06:07.158Z,44.38
2018-04-07T12:08:34.817Z,42.57
2018-04-07T12:11:02.456Z,41.00
2018-04-07T12:13:30.030Z,40.23
2018-04-07T12:15:57.697Z,41.78
2018-04-07T12:18:25.274Z,42.41
2018-04-07T12:20:52.907Z,42.17
2018-04-07T12:23:20.530Z,41.98
2018-04-07T12:25:48.099Z,43.58
2018-04-07T12:28:15.670Z,43.08
2018-04-07T12:30:43.251Z,43.10
2018-04-07T12:33:10.824Z,42.66
2018-04-07T12:35:38.438Z,42.13
2018-04-07T12:38:06.018Z,40.28
2018-04-07T12:40:33.671Z,39.90
2018-04-07T12:43:01.248Z,40.56
2018-04-07T12:45:28.918Z,42.41
2018-04-07T12:47:56.540Z,41.33
2018-04-07T12:50:24.110Z,42.27
2018-04-07T12:52:51.693Z,42.03
2018-04-07T12:55:19.349Z,43.43
2018-04-07T12:57:46.981Z,44.28
2018-04-07T13:00:14.606Z,44.42
2018-04-07T13:02:42.217Z,45.11
2018-04-07T13:05:09.786Z,46.80
2018-04-07T13:07:37.378Z,47.45
2018-04-07T13:10:04.941Z,47.39
2018-04-07T13:12:32.646Z,47.11
2018-04-07T13:15:00.253Z,46.91
2018-04-07T13:17:27.866Z,46.94
2018-04-07T13:19:55.465Z,47.32
2018-04-07T13:22:23.076Z,47.53
2018-04-07T13:24:50.716Z,47.99
2018-04-07T13:27:18.346Z,49.44
2018-04-07T13:29:45.896Z,50.72
2018-04-07T13:32:13.534Z,50.91
2018-04-07T13:34:41.083Z,51.81
2018-04-07T13:37:08.759Z,52.95
2018-04-07T13:39:36.391Z,53.37
2018-04-07T13:42:03.957Z,53.74
2018-04-07T13:44:31.540Z,54.46
2018-04-07T13:46:59.171Z,54.91
2018-04-07T13:49:26.786Z,55.21
2018-04-07T13:51:54.418Z,55.16
2018-04-07T13:54:21.982Z,55.45
2018-04-07T13:56:49.535Z,55.25
2018-04-07T13:59:17.154Z,55.32
2018-04-07T14:01:44.846Z,54.94
2018-04-07T14:04:12.881Z,55.31
2018-04-07T14:06:40.530Z,55.10
2018-04-07T14:09:08.191Z,54.62
2018-04-07T14:11:35.772Z,55.04
2018-04-07T14:14:03.443Z,55.17
2018-04-07T14:16:31.001Z,55.03
2018-04-07T14:18:58.567Z,56.09
2018-04-07T14:21:26.150Z,56.07
2018-04-07T14:23:53.783Z,57.84
2018-04-07T14:26:21.458Z,56.73
2018-04-07T14:28:49.098Z,56.17
2018-04-07T14:31:16.667Z,56.14
2018-04-07T14:33:44.302Z,55.89
2018-04-07T14:36:11.874Z,56.02
2018-04-07T14:38:39.470Z,55.84
2018-04-07T14:41:07.035Z,56.32
2018-04-07T14:43:34.706Z,56.88
2018-04-07T14:46:02.286Z,56.52
2018-04-07T14:48:29.946Z,56.04
2018-04-07T14:50:57.578Z,56.47
2018-04-07T14:53:25.211Z,56.69
2018-04-07T14:55:52.839Z,56.61
2018-04-07T14:58:20.415Z,57.09
2018-04-07T15:00:48.003Z,56.93
2018-04-07T15:03:15.697Z,56.69
2018-04-07T15:05:43.286Z,56.84
2018-04-07T15:08:10.854Z,55.85
2018-04-07T15:10:38.431Z,57.21
2018-04-07T15:13:06.071Z,57.34
2018-04-07T15:15:33.638Z,57.62
2018-04-07T15:18:01.223Z,58.01
2018-04-07T15:20:28.858Z,57.84
2018-04-07T15:22:56.539Z,58.11
2018-04-07T15:25:24.197Z,58.57
2018-04-07T15:27:51.774Z,58.30
2018-04-07T15:30:19.348Z,58.19
2018-04-07T15:32:46.985Z,58.01
2018-04-07T15:35:14.569Z,57.31
2018-04-07T15:37:42.134Z,56.72
2018-04-07T15:40:09.755Z,56.21
2018-04-07T15:42:37.380Z,56.29
2018-04-07T15:45:04.954Z,56.17
2018-04-07T15:47:32.560Z,56.51
2018-04-07T15:50:00.244Z,56.68
2018-04-07T15:52:27.943Z,56.32
2018-04-07T15:54:55.534Z,56.28
2018-04-07T15:57:23.138Z,56.64
2018-04-07T15:59:50.758Z,56.81
2018-04-07T16:02:18.429Z,57.60
2018-04-07T16:04:46.082Z,58.06
2018-04-07T16:07:13.726Z,58.71
2018-04-07T16:09:41.303Z,59.41
2018-04-07T16:12:09.021Z,60.03
2018-04-07T16:14:36.594Z,60.12
2018-04-07T16:17:04.285Z,60.62
2018-04-07T16:19:31.889Z,60.96
2018-04-07T16:21:59.532Z,61.18
2018-04-07T16:24:27.113Z,61.86
2018-04-07T16:26:54.677Z,61.34
2018-04-07T16:29:22.310Z,60.66
2018-04-07T16:31:49.886Z,60.36
2018-04-07T16:34:17.507Z,60.24
2018-04-07T16:36:45.077Z,60.48
2018-04-07T16:39:12.638Z,61.26
2018-04-07T16:41:40.215Z,61.54
2018-04-07T16:44:07.880Z,61.11
2018-04-07T16:46:35.541Z,61.47
2018-04-07T16:49:03.174Z,61.15
2018-04-07T16:51:30.793Z,61.09
2018-04-07T16:53:58.380Z,61.55
2018-04-07T16:56:26.002Z,62.16
2018-04-07T16:58:53.574Z,62.63
2018-04-07T17:01:21.146Z,62.93
2018-04-07T17:03:48.833Z,63.68
2018-04-07T17:06:16.449Z,63.96
2018-04-07T17:08:44.080Z,63.66
2018-04-07T17:11:11.714Z,64.04
2018-04-07T17:13:39.277Z,64.60
2018-04-07T17:16:06.859Z,65.08
2018-04-07T17:18:34.479Z,65.38
2018-04-07T17:21:02.137Z,65.39
2018-04-07T17:23:29.808Z,65.98
2018-04-07T17:25:57.443Z,66.04
2018-04-07T17:28:25.032Z,66.86
2018-04-07T17:30:52.604Z,66.71
2018-04-07T17:33:20.174Z,66.47
2018-04-07T17:35:47.734Z,66.28
2018-04-07T17:38:15.420Z,66.40
2018-04-07T17:40:43.087Z,66.00
2018-04-07T17:43:10.667Z,66.45
2018-04-07T17:45:38.318Z,66.90
2018-04-07T17:48:05.899Z,67.57
2018-04-07T17:50:33.501Z,68.49
2018-04-07T17:53:01.295Z,68.42
2018-04-07T17:55:28.918Z,68.55
2018-04-07T17:57:56.536Z,68.67
2018-04-07T18:00:24.102Z,69.14
2018-04-07T18:02:51.673Z,69.47
2018-04-07T18:05:19.240Z,70.09
2018-04-07T18:07:46.934Z,69.90
2018-04-07T18:10:14.507Z,70.15
2018-04-07T18:12:42.122Z,70.46
2018-04-07T18:15:09.686Z,70.63
2018-04-07T18:17:37.276Z,70.52
2018-04-07T18:20:04.857Z,70.86
2018-04-07T18:22:32.489Z,71.07
2018-04-07T18:25:00.091Z,71.42
2018-04-07T18:27:27.667Z,70.56
2018-04-07T18:29:55.349Z,70.30
2018-04-07T18:32:22.917Z,68.22
2018-04-07T18:34:50.548Z,69.99
2018-04-07T18:37:18.231Z,70.14
2018-04-07T18:39:45.822Z,71.25
2018-04-07T18:42:13.403Z,71.32
2018-04-07T18:44:41.031Z,71.25
2018-04-07T18:47:08.672Z,71.60
2018-04-07T18:49:36.252Z,71.77
2018-04-07T18:52:03.879Z,72.23
2018-04-07T18:54:31.478Z,72.64
2018-04-07T18:56:59.030Z,72.83
2018-04-07T18:59:26.603Z,73.41
2018-04-07T19:01:54.187Z,73.92
2018-04-07T19:04:21.830Z,74.34
2018-04-07T19:06:49.490Z,74.76
2018-04-07T19:09:17.089Z,75.19
2018-04-07T19:11:44.706Z,75.56
2018-04-07T19:14:12.269Z,75.97
2018-04-07T19:16:39.844Z,76.24
2018-04-07T19:19:07.521Z,76.28
2018-04-07T19:21:35.242Z,76.95
2018-04-07T19:24:02.821Z,77.54
2018-04-07T19:26:30.390Z,76.95
2018-04-07T19:28:57.966Z,77.09
2018-04-07T19:31:25.595Z,77.31
2018-04-07T19:33:53.188Z,77.59
2018-04-07T19:36:20.802Z,77.81
2018-04-07T19:38:48.458Z,78.07
2018-04-07T19:41:16.036Z,78.17
2018-04-07T19:43:43.627Z,78.40
2018-04-07T19:46:11.284Z,78.45
2018-04-07T19:48:38.857Z,78.21
2018-04-07T19:51:06.443Z,78.14
2018-04-07T19:53:34.022Z,78.18
2018-04-07T19:56:01.638Z,78.38
2018-04-07T19:58:29.216Z,78.44
2018-04-07T20:00:56.786Z,78.75
2018-04-07T20:03:24.403Z,79.24
2018-04-07T20:05:51.974Z,79.04
2018-04-07T20:08:19.562Z,79.52
2018-04-07T20:10:47.146Z,79.67
2018-04-07T20:13:14.830Z,79.91
2018-04-07T20:15:42.507Z,79.79
2018-04-07T20:18:10.142Z,80.14
2018-04-07T20:20:37.798Z,80.17
2018-04-07T20:23:05.431Z,80.23
2018-04-07T20:25:33.101Z,79.89
2018-04-07T20:28:00.690Z,79.89
2018-04-07T20:30:28.320Z,80.02
2018-04-07T20:32:55.906Z,80.17
2018-04-07T20:35:23.530Z,80.10
2018-04-07T20:37:51.115Z,80.30
2018-04-07T20:40:18.689Z,79.90
2018-04-07T20:42:46.321Z,80.01
2018-04-07T20:45:13.886Z,80.20
2018-04-07T20:47:41.524Z,80.14
2018-04-07T20:50:09.094Z,79.76
2018-04-07T20:52:36.666Z,79.83
2018-04-07T20:55:04.346Z,79.19
2018-04-07T20:57:31.895Z,79.00
2018-04-07T20:59:59.466Z,79.01
2018-04-07T21:02:27.044Z,79.11
2018-04-07T21:04:54.676Z,78.92
2018-04-07T21:07:22.249Z,78.89
2018-04-07T21:09:49.879Z,79.12
2018-04-07T21:12:17.479Z,78.81
2018-04-07T21:14:45.134Z,79.44
2018-04-07T21:17:12.698Z,79.22
2018-04-07T21:19:40.330Z,79.11
2018-04-07T21:22:07.908Z,79.05
2018-04-07T21:24:35.586Z,79.19
2018-04-07T21:27:03.211Z,79.67
2018-04-07T21:29:30.786Z,79.58
2018-04-07T21:31:58.362Z,79.31
2018-04-07T21:34:25.935Z,79.39
2018-04-07T21:36:53.578Z,79.53
2018-04-07T21:39:21.202Z,79.56
2018-04-07T21:41:48.896Z,79.61
2018-04-07T21:44:16.507Z,79.41
2018-04-07T21:46:44.127Z,79.49
2018-04-07T21:49:11.683Z,79.67
2018-04-07T21:51:39.246Z,79.75
2018-04-07T21:54:06.823Z,79.89
2018-04-07T21:56:34.399Z,80.02
2018-04-07T21:59:02.038Z,80.16
2018-04-07T22:01:29.663Z,80.18
2018-04-07T22:03:57.295Z,80.17
2018-04-07T22:06:24.869Z,80.06
2018-04-07T22:08:52.465Z,80.26
2018-04-07T22:11:20.156Z,80.43
2018-04-07T22:13:47.765Z,80.59
2018-04-07T22:16:15.403Z,81.15
2018-04-07T22:18:42.966Z,80.99
2018-04-07T22:21:10.538Z,80.90
2018-04-07T22:23:38.116Z,80.92
2018-04-07T22:26:05.722Z,81.00
2018-04-07T22:28:33.290Z,81.03
2018-04-07T22:31:00.904Z,81.37
2018-04-07T22:33:28.622Z,81.22
2018-04-07T22:35:56.223Z,80.90
2018-04-07T22:38:23.893Z,80.54
2018-04-07T22:40:51.470Z,80.58
2018-04-07T22:43:19.065Z,80.86
2018-04-07T22:45:46.642Z,80.77
2018-04-07T22:48:14.216Z,80.89
2018-04-07T22:50:41.902Z,80.98
2018-04-07T22:53:09.464Z,81.13
2018-04-07T22:55:37.029Z,81.00
2018-04-07T22:58:04.677Z,80.91
2018-04-07T23:00:32.304Z,80.77
2018-04-07T23:02:59.934Z,80.52
2018-04-07T23:05:27.498Z,79.92
2018-04-07T23:07:55.155Z,79.43
2018-04-07T23:10:22.775Z,79.69
2018-04-07T23:12:50.365Z,79.79
2018-04-07T23:15:17.933Z,79.61
2018-04-07T23:17:45.549Z,79.68
2018-04-07T23:20:13.122Z,79.67
2018-04-07T23:22:40.682Z,79.65
2018-04-07T23:25:08.298Z,79.46
2018-04-07T23:27:35.857Z,79.00
2018-04-07T23:30:03.422Z,79.17
2018-04-07T23:32:31.002Z,79.09
2018-04-07T23:34:58.627Z,79.04
2018-04-07T23:37:26.250Z,79.08
2018-04-07T23:39:53.806Z,78.78
2018-04-07T23:42:21.490Z,78.82
2018-04-07T23:44:49.049Z,79.17
2018-04-07T23:47:16.610Z,79.06
2018-04-07T23:49:44.238Z,78.91
2018-04-07T23:52:11.798Z,79.08
2018-04-07T23:54:39.373Z,79.16
2018-04-07T23:57:06.990Z,79.37
2018-04-07T23:59:34.597Z,79.38
